UAE809 OMDB-OEMA
Flight info
| Callsign | UAE809 |
|---|---|
| Flight time | 1h 28m |
| Altitude | 30000 |
| Route | KUTLI L519 ATUDO M318 GOLGU M550 RIBOT/N0506F280 M550 MEVDO/N0514F300 DCT DANOM DCT ASMIS DCT ELONU |
| Aircraft | B77W/H-SDE1E2E3FGHIJ2J3J4J5M1RWXY/LB1D1 |
Departure
| Time | 2026-04-20 03:32 |
|---|---|
| Airport | Dubai International Airport (OMDB) |
Arrival
| Time | 2026-04-20 05:00 |
|---|---|
| Airport | Prince Mohammad Bin Abdulaziz Airport (OEMA) |
| Time | Latitude | Longitude | Altitude | Speed | Heading |
|---|---|---|---|---|---|
| 2026-04-20 03:06 | 25.24887 | 55.36299 | 30 ft | 0 kts | 212° |
| 2026-04-20 03:20 | 25.24892 | 55.36303 | 26 ft | 2 kts | 212° |
| 2026-04-20 03:20 | 25.24909 | 55.36314 | 27 ft | 3 kts | 212° |
| 2026-04-20 03:20 | 25.24926 | 55.36326 | 30 ft | 3 kts | 211° |
| 2026-04-20 03:21 | 25.24940 | 55.36335 | 31 ft | 2 kts | 212° |
| 2026-04-20 03:21 | 25.24953 | 55.36347 | 31 ft | 3 kts | 250° |
| 2026-04-20 03:21 | 25.24954 | 55.36366 | 31 ft | 3 kts | 291° |
| 2026-04-20 03:21 | 25.24945 | 55.36386 | 31 ft | 3 kts | 302° |
| 2026-04-20 03:22 | 25.24940 | 55.36396 | 31 ft | 1 kts | 302° |
| 2026-04-20 03:22 | 25.24938 | 55.36398 | 31 ft | 0 kts | 302° |
| 2026-04-20 03:24 | 25.24939 | 55.36398 | 26 ft | 0 kts | 302° |
| 2026-04-20 03:24 | 25.24946 | 55.36385 | 29 ft | 5 kts | 302° |
| 2026-04-20 03:25 | 25.24975 | 55.36333 | 31 ft | 9 kts | 302° |
| 2026-04-20 03:25 | 25.25015 | 55.36282 | 29 ft | 9 kts | 335° |
| 2026-04-20 03:25 | 25.25074 | 55.36300 | 32 ft | 9 kts | 30° |
| 2026-04-20 03:25 | 25.25129 | 55.36336 | 26 ft | 9 kts | 30° |
| 2026-04-20 03:26 | 25.25183 | 55.36373 | 26 ft | 9 kts | 32° |
| 2026-04-20 03:26 | 25.25243 | 55.36413 | 27 ft | 12 kts | 32° |
| 2026-04-20 03:26 | 25.25326 | 55.36470 | 27 ft | 15 kts | 31° |
| 2026-04-20 03:26 | 25.25408 | 55.36536 | 27 ft | 14 kts | 56° |
| 2026-04-20 03:27 | 25.25398 | 55.36605 | 26 ft | 11 kts | 119° |
| 2026-04-20 03:27 | 25.25354 | 55.36687 | 26 ft | 13 kts | 121° |
| 2026-04-20 03:27 | 25.25306 | 55.36772 | 27 ft | 13 kts | 122° |
| 2026-04-20 03:27 | 25.25256 | 55.36860 | 27 ft | 16 kts | 122° |
| 2026-04-20 03:28 | 25.25180 | 55.36994 | 27 ft | 25 kts | 122° |
| 2026-04-20 03:28 | 25.25085 | 55.37163 | 28 ft | 26 kts | 122° |
| 2026-04-20 03:28 | 25.24893 | 55.37504 | 28 ft | 26 kts | 122° |
| 2026-04-20 03:29 | 25.24797 | 55.37675 | 28 ft | 26 kts | 122° |
| 2026-04-20 03:29 | 25.24703 | 55.37843 | 27 ft | 26 kts | 122° |
| 2026-04-20 03:29 | 25.24606 | 55.38014 | 28 ft | 26 kts | 122° |
| 2026-04-20 03:29 | 25.24537 | 55.38136 | 27 ft | 14 kts | 122° |
| 2026-04-20 03:30 | 25.24495 | 55.38223 | 27 ft | 9 kts | 99° |
| 2026-04-20 03:30 | 25.24529 | 55.38270 | 27 ft | 9 kts | 32° |
| 2026-04-20 03:30 | 25.24565 | 55.38296 | 27 ft | 10 kts | 32° |
| 2026-04-20 03:30 | 25.24637 | 55.38331 | 27 ft | 8 kts | 346° |
| 2026-04-20 03:31 | 25.24666 | 55.38280 | 27 ft | 7 kts | 299° |
| 2026-04-20 03:31 | 25.24669 | 55.38273 | 27 ft | 0 kts | 302° |
| 2026-04-20 03:31 | 25.24751 | 55.38127 | 31 ft | 59 kts | 301° |
| 2026-04-20 03:32 | 25.25116 | 55.37468 | 32 ft | 137 kts | 301° |
| 2026-04-20 03:32 | 25.25713 | 55.36374 | 85 ft | 190 kts | 300° |
| 2026-04-20 03:32 | 25.26409 | 55.35097 | 677 ft | 197 kts | 300° |
| 2026-04-20 03:32 | 25.27127 | 55.33810 | 1460 ft | 196 kts | 301° |
| 2026-04-20 03:33 | 25.27841 | 55.32541 | 2209 ft | 195 kts | 301° |
| 2026-04-20 03:33 | 25.28556 | 55.31261 | 2913 ft | 195 kts | 302° |
| 2026-04-20 03:33 | 25.29200 | 55.29939 | 3503 ft | 198 kts | 285° |
| 2026-04-20 03:33 | 25.29097 | 55.28411 | 4019 ft | 205 kts | 249° |
| 2026-04-20 03:34 | 25.28489 | 55.26991 | 4584 ft | 208 kts | 247° |
| 2026-04-20 03:34 | 25.28081 | 55.26021 | 4979 ft | 210 kts | 248° |
| 2026-04-20 03:34 | 25.27462 | 55.24548 | 5631 ft | 211 kts | 248° |
| 2026-04-20 03:34 | 25.26632 | 55.22589 | 6413 ft | 213 kts | 248° |
| 2026-04-20 03:35 | 25.26213 | 55.21601 | 6781 ft | 215 kts | 248° |
| 2026-04-20 03:35 | 25.25319 | 55.19489 | 7167 ft | 241 kts | 248° |
| 2026-04-20 03:35 | 25.24837 | 55.18354 | 7510 ft | 247 kts | 248° |
| 2026-04-20 03:35 | 25.24088 | 55.16595 | 8105 ft | 254 kts | 247° |
| 2026-04-20 03:36 | 25.23221 | 55.14821 | 8426 ft | 277 kts | 243° |
| 2026-04-20 03:36 | 25.22221 | 55.12937 | 8984 ft | 288 kts | 242° |
| 2026-04-20 03:36 | 25.21208 | 55.11024 | 9776 ft | 293 kts | 243° |
| 2026-04-20 03:36 | 25.20172 | 55.09042 | 10595 ft | 301 kts | 244° |
| 2026-04-20 03:37 | 25.19261 | 55.06891 | 10927 ft | 326 kts | 250° |
| 2026-04-20 03:37 | 25.18391 | 55.04431 | 11146 ft | 354 kts | 251° |
| 2026-04-20 03:37 | 25.17138 | 55.02017 | 11332 ft | 380 kts | 229° |
| 2026-04-20 03:37 | 25.14948 | 55.00332 | 11984 ft | 396 kts | 204° |
| 2026-04-20 03:38 | 25.12246 | 54.99548 | 12754 ft | 401 kts | 192° |
| 2026-04-20 03:38 | 25.09489 | 54.98963 | 13533 ft | 409 kts | 192° |
| 2026-04-20 03:38 | 25.06677 | 54.98358 | 14412 ft | 411 kts | 192° |
| 2026-04-20 03:38 | 25.03879 | 54.97745 | 15247 ft | 414 kts | 192° |
| 2026-04-20 03:39 | 25.01018 | 54.97109 | 16072 ft | 419 kts | 192° |
| 2026-04-20 03:39 | 24.98164 | 54.96466 | 16836 ft | 424 kts | 192° |
| 2026-04-20 03:39 | 24.95270 | 54.95811 | 17610 ft | 430 kts | 193° |
| 2026-04-20 03:39 | 24.92295 | 54.95136 | 18359 ft | 434 kts | 193° |
| 2026-04-20 03:40 | 24.89337 | 54.94452 | 19051 ft | 437 kts | 194° |
| 2026-04-20 03:40 | 24.86440 | 54.93502 | 19759 ft | 439 kts | 201° |
| 2026-04-20 03:40 | 24.83593 | 54.92202 | 20480 ft | 441 kts | 207° |
| 2026-04-20 03:40 | 24.80899 | 54.90607 | 21182 ft | 443 kts | 211° |
| 2026-04-20 03:41 | 24.78181 | 54.88939 | 21886 ft | 446 kts | 211° |
| 2026-04-20 03:41 | 24.75485 | 54.87296 | 22577 ft | 449 kts | 210° |
| 2026-04-20 03:41 | 24.72711 | 54.85628 | 23258 ft | 452 kts | 210° |
| 2026-04-20 03:41 | 24.69949 | 54.83981 | 23833 ft | 455 kts | 210° |
| 2026-04-20 03:42 | 24.67185 | 54.82315 | 24350 ft | 458 kts | 211° |
| 2026-04-20 03:42 | 24.64404 | 54.80552 | 24857 ft | 462 kts | 212° |
| 2026-04-20 03:42 | 24.61612 | 54.78742 | 25382 ft | 465 kts | 212° |
| 2026-04-20 03:42 | 24.58826 | 54.76938 | 25901 ft | 468 kts | 212° |
| 2026-04-20 03:43 | 24.56028 | 54.75145 | 26399 ft | 472 kts | 212° |
| 2026-04-20 03:43 | 24.53150 | 54.73310 | 26882 ft | 476 kts | 212° |
| 2026-04-20 03:43 | 24.50307 | 54.71475 | 27348 ft | 479 kts | 212° |
| 2026-04-20 03:43 | 24.47412 | 54.69585 | 27857 ft | 482 kts | 212° |
| 2026-04-20 03:44 | 24.44530 | 54.67706 | 28321 ft | 485 kts | 212° |
| 2026-04-20 03:44 | 24.41628 | 54.65831 | 28763 ft | 488 kts | 212° |
| 2026-04-20 03:44 | 24.38648 | 54.63947 | 29201 ft | 491 kts | 211° |
| 2026-04-20 03:44 | 24.35697 | 54.62089 | 29595 ft | 494 kts | 211° |
| 2026-04-20 03:45 | 24.32715 | 54.60206 | 29817 ft | 500 kts | 211° |
| 2026-04-20 03:45 | 24.29687 | 54.58291 | 29866 ft | 500 kts | 211° |
| 2026-04-20 03:45 | 24.24176 | 54.53816 | 29881 ft | 491 kts | 228° |
| 2026-04-20 03:46 | 24.20207 | 54.47760 | 29872 ft | 491 kts | 243° |
| 2026-04-20 03:46 | 24.16983 | 54.41159 | 29872 ft | 493 kts | 242° |
| 2026-04-20 03:47 | 24.13669 | 54.34544 | 29869 ft | 494 kts | 242° |
| 2026-04-20 03:47 | 24.10352 | 54.27995 | 29867 ft | 494 kts | 242° |
| 2026-04-20 03:48 | 24.07023 | 54.21430 | 29865 ft | 494 kts | 242° |
| 2026-04-20 03:48 | 24.03676 | 54.14827 | 29873 ft | 497 kts | 242° |
| 2026-04-20 03:49 | 24.00297 | 54.08165 | 29876 ft | 505 kts | 242° |
| 2026-04-20 03:49 | 23.96847 | 54.01509 | 29866 ft | 503 kts | 241° |
| 2026-04-20 03:50 | 23.93339 | 53.94895 | 29868 ft | 503 kts | 241° |
| 2026-04-20 03:50 | 23.89840 | 53.88298 | 29872 ft | 503 kts | 241° |
| 2026-04-20 03:51 | 23.86343 | 53.81687 | 29872 ft | 504 kts | 241° |
| 2026-04-20 03:51 | 23.82836 | 53.75057 | 29871 ft | 504 kts | 241° |
| 2026-04-20 03:52 | 23.79327 | 53.68436 | 29867 ft | 505 kts | 241° |
| 2026-04-20 03:52 | 23.75799 | 53.61785 | 29869 ft | 506 kts | 241° |
| 2026-04-20 03:53 | 23.72260 | 53.55124 | 29865 ft | 506 kts | 241° |
| 2026-04-20 03:53 | 23.68727 | 53.48477 | 29871 ft | 507 kts | 241° |
| 2026-04-20 03:54 | 23.65200 | 53.41821 | 29873 ft | 507 kts | 241° |
| 2026-04-20 03:54 | 23.61688 | 53.35196 | 29872 ft | 507 kts | 241° |
| 2026-04-20 03:55 | 23.58157 | 53.28545 | 29867 ft | 507 kts | 241° |
| 2026-04-20 03:55 | 23.54621 | 53.21897 | 29865 ft | 506 kts | 241° |
| 2026-04-20 03:56 | 23.51070 | 53.15229 | 29866 ft | 506 kts | 241° |
| 2026-04-20 03:56 | 23.47558 | 53.08642 | 29868 ft | 506 kts | 241° |
| 2026-04-20 03:57 | 23.44021 | 53.02016 | 29863 ft | 506 kts | 241° |
| 2026-04-20 03:57 | 23.40488 | 52.95405 | 29862 ft | 505 kts | 241° |
| 2026-04-20 03:58 | 23.37042 | 52.88757 | 29858 ft | 504 kts | 242° |
| 2026-04-20 03:58 | 23.33646 | 52.82090 | 29857 ft | 504 kts | 242° |
| 2026-04-20 03:59 | 23.30239 | 52.75437 | 29856 ft | 503 kts | 242° |
| 2026-04-20 03:59 | 23.26826 | 52.68810 | 29854 ft | 502 kts | 242° |
| 2026-04-20 04:00 | 23.23418 | 52.62200 | 29854 ft | 501 kts | 242° |
| 2026-04-20 04:00 | 23.20013 | 52.55604 | 29859 ft | 501 kts | 242° |
| 2026-04-20 04:01 | 23.17020 | 52.48818 | 29849 ft | 498 kts | 252° |
| 2026-04-20 04:01 | 23.14882 | 52.41689 | 29859 ft | 496 kts | 253° |
| 2026-04-20 04:02 | 23.12647 | 52.34608 | 29856 ft | 496 kts | 252° |
| 2026-04-20 04:02 | 23.10360 | 52.27505 | 29858 ft | 496 kts | 252° |
| 2026-04-20 04:03 | 23.08092 | 52.20438 | 29858 ft | 496 kts | 252° |
| 2026-04-20 04:03 | 23.05841 | 52.13412 | 29855 ft | 495 kts | 252° |
| 2026-04-20 04:04 | 23.03578 | 52.06355 | 29857 ft | 495 kts | 252° |
| 2026-04-20 04:04 | 23.01306 | 51.99289 | 29857 ft | 495 kts | 252° |
| 2026-04-20 04:05 | 22.99035 | 51.92201 | 29856 ft | 495 kts | 253° |
| 2026-04-20 04:05 | 22.96780 | 51.85154 | 29858 ft | 495 kts | 253° |
| 2026-04-20 04:06 | 22.94521 | 51.78114 | 29861 ft | 494 kts | 253° |
| 2026-04-20 04:06 | 22.92267 | 51.71099 | 29855 ft | 493 kts | 253° |
| 2026-04-20 04:07 | 22.90015 | 51.64105 | 29857 ft | 492 kts | 253° |
| 2026-04-20 04:07 | 22.87758 | 51.57104 | 29865 ft | 491 kts | 253° |
| 2026-04-20 04:08 | 22.85508 | 51.50138 | 29860 ft | 489 kts | 254° |
| 2026-04-20 04:08 | 22.83628 | 51.43067 | 29851 ft | 483 kts | 262° |
| 2026-04-20 04:09 | 22.82438 | 51.35910 | 29856 ft | 482 kts | 262° |
| 2026-04-20 04:09 | 22.81217 | 51.28771 | 29859 ft | 482 kts | 262° |
| 2026-04-20 04:10 | 22.79966 | 51.21650 | 29860 ft | 482 kts | 262° |
| 2026-04-20 04:10 | 22.78710 | 51.14525 | 29857 ft | 482 kts | 262° |
| 2026-04-20 04:11 | 22.77438 | 51.07362 | 29858 ft | 482 kts | 262° |
| 2026-04-20 04:11 | 22.76154 | 51.00230 | 29865 ft | 483 kts | 262° |
| 2026-04-20 04:12 | 22.74871 | 50.93122 | 29862 ft | 483 kts | 262° |
| 2026-04-20 04:12 | 22.73579 | 50.85973 | 29856 ft | 483 kts | 262° |
| 2026-04-20 04:13 | 22.72287 | 50.78836 | 29855 ft | 482 kts | 262° |
| 2026-04-20 04:13 | 22.71000 | 50.71745 | 29857 ft | 482 kts | 262° |
| 2026-04-20 04:14 | 22.69703 | 50.64619 | 29863 ft | 482 kts | 262° |
| 2026-04-20 04:14 | 22.68405 | 50.57503 | 29857 ft | 482 kts | 262° |
| 2026-04-20 04:15 | 22.67106 | 50.50403 | 29855 ft | 482 kts | 262° |
| 2026-04-20 04:15 | 22.65794 | 50.43252 | 29851 ft | 482 kts | 262° |
| 2026-04-20 04:16 | 22.64491 | 50.36168 | 29856 ft | 482 kts | 262° |
| 2026-04-20 04:16 | 22.63176 | 50.29032 | 29855 ft | 482 kts | 262° |
| 2026-04-20 04:17 | 22.61863 | 50.21928 | 29851 ft | 482 kts | 262° |
| 2026-04-20 04:17 | 22.60545 | 50.14820 | 29852 ft | 482 kts | 262° |
| 2026-04-20 04:18 | 22.59234 | 50.07762 | 29851 ft | 482 kts | 262° |
| 2026-04-20 04:18 | 22.57913 | 50.00668 | 29850 ft | 481 kts | 262° |
| 2026-04-20 04:19 | 22.56580 | 49.93531 | 29848 ft | 481 kts | 262° |
| 2026-04-20 04:19 | 22.55257 | 49.86460 | 29849 ft | 481 kts | 261° |
| 2026-04-20 04:20 | 22.54088 | 49.79354 | 29842 ft | 478 kts | 267° |
| 2026-04-20 04:20 | 22.53923 | 49.72184 | 29849 ft | 475 kts | 275° |
| 2026-04-20 04:21 | 22.54582 | 49.65117 | 29836 ft | 473 kts | 278° |
| 2026-04-20 04:21 | 22.55292 | 49.58039 | 29847 ft | 473 kts | 278° |
| 2026-04-20 04:22 | 22.55979 | 49.50979 | 29850 ft | 473 kts | 277° |
| 2026-04-20 04:22 | 22.56648 | 49.43906 | 29845 ft | 473 kts | 277° |
| 2026-04-20 04:23 | 22.57313 | 49.36798 | 29849 ft | 473 kts | 277° |
| 2026-04-20 04:23 | 22.57968 | 49.29746 | 29843 ft | 473 kts | 277° |
| 2026-04-20 04:24 | 22.58624 | 49.22663 | 29848 ft | 473 kts | 277° |
| 2026-04-20 04:24 | 22.59277 | 49.15586 | 29842 ft | 474 kts | 277° |
| 2026-04-20 04:25 | 22.59929 | 49.08490 | 29838 ft | 474 kts | 277° |
| 2026-04-20 04:25 | 22.60578 | 49.01388 | 29844 ft | 474 kts | 277° |
| 2026-04-20 04:26 | 22.61222 | 48.94297 | 29849 ft | 474 kts | 277° |
| 2026-04-20 04:26 | 22.61861 | 48.87232 | 29847 ft | 474 kts | 277° |
| 2026-04-20 04:27 | 22.62499 | 48.80147 | 29854 ft | 474 kts | 277° |
| 2026-04-20 04:27 | 22.63031 | 48.74216 | 29849 ft | 474 kts | 277° |
| 2026-04-20 04:28 | 22.63665 | 48.67107 | 29849 ft | 474 kts | 277° |
| 2026-04-20 04:28 | 22.64296 | 48.59997 | 29848 ft | 474 kts | 276° |
| 2026-04-20 04:29 | 22.64923 | 48.52887 | 29849 ft | 474 kts | 276° |
| 2026-04-20 04:29 | 22.65545 | 48.45813 | 29854 ft | 473 kts | 276° |
| 2026-04-20 04:30 | 22.66166 | 48.38710 | 29854 ft | 473 kts | 276° |
| 2026-04-20 04:30 | 22.66779 | 48.31654 | 29856 ft | 472 kts | 276° |
| 2026-04-20 04:31 | 22.68572 | 48.10826 | 29864 ft | 472 kts | 276° |
| 2026-04-20 04:31 | 22.70960 | 47.82576 | 29864 ft | 470 kts | 276° |
| 2026-04-20 04:32 | 22.73291 | 47.54396 | 29882 ft | 466 kts | 276° |
| 2026-04-20 04:32 | 22.75544 | 47.26568 | 29893 ft | 463 kts | 276° |
| 2026-04-20 04:33 | 22.77743 | 46.98810 | 29923 ft | 462 kts | 275° |
| 2026-04-20 04:33 | 22.79892 | 46.71069 | 29922 ft | 463 kts | 275° |
| 2026-04-20 04:34 | 22.81067 | 46.55632 | 29880 ft | 464 kts | 275° |
| 2026-04-20 04:34 | 22.83138 | 46.27917 | 29893 ft | 464 kts | 275° |
| 2026-04-20 04:35 | 22.85176 | 45.99982 | 29878 ft | 464 kts | 275° |
| 2026-04-20 04:35 | 22.87163 | 45.72091 | 29881 ft | 462 kts | 274° |
| 2026-04-20 04:36 | 22.90026 | 45.30609 | 29894 ft | 458 kts | 274° |
| 2026-04-20 04:37 | 22.91867 | 45.03066 | 29896 ft | 457 kts | 273° |
| 2026-04-20 04:37 | 22.93658 | 44.75573 | 29899 ft | 458 kts | 273° |
| 2026-04-20 04:37 | 22.95731 | 44.61909 | 29904 ft | 461 kts | 286° |
| 2026-04-20 04:38 | 22.99823 | 44.48850 | 29894 ft | 461 kts | 286° |
| 2026-04-20 04:38 | 23.07933 | 44.22489 | 29891 ft | 460 kts | 286° |
| 2026-04-20 04:39 | 23.15952 | 43.96209 | 29921 ft | 457 kts | 286° |
| 2026-04-20 04:39 | 23.23869 | 43.70088 | 29939 ft | 454 kts | 286° |
| 2026-04-20 04:40 | 23.36032 | 43.29638 | 29953 ft | 451 kts | 285° |
| 2026-04-20 04:40 | 23.51501 | 42.77533 | 29972 ft | 448 kts | 285° |
| 2026-04-20 04:41 | 23.66663 | 42.25771 | 29971 ft | 449 kts | 285° |
| 2026-04-20 04:41 | 23.81572 | 41.74189 | 29988 ft | 447 kts | 285° |
| 2026-04-20 04:42 | 23.96445 | 41.22005 | 29934 ft | 450 kts | 285° |
| 2026-04-20 04:42 | 24.11198 | 40.69484 | 29978 ft | 456 kts | 284° |
| 2026-04-20 04:43 | 24.17968 | 40.36845 | 27284 ft | 434 kts | 275° |
| 2026-04-20 04:43 | 24.20518 | 40.15183 | 22514 ft | 410 kts | 275° |
| 2026-04-20 04:43 | 24.20881 | 40.12111 | 22248 ft | 397 kts | 275° |
| 2026-04-20 04:43 | 24.21224 | 40.09187 | 22055 ft | 383 kts | 275° |
| 2026-04-20 04:44 | 24.21613 | 40.06345 | 21753 ft | 369 kts | 281° |
| 2026-04-20 04:44 | 24.22709 | 40.03790 | 20971 ft | 384 kts | 301° |
| 2026-04-20 04:44 | 24.24626 | 40.01631 | 20124 ft | 403 kts | 315° |
| 2026-04-20 04:44 | 24.26976 | 39.99925 | 19462 ft | 418 kts | 326° |
| 2026-04-20 04:45 | 24.29721 | 39.98801 | 18918 ft | 433 kts | 340° |
| 2026-04-20 04:45 | 24.32705 | 39.98106 | 18430 ft | 439 kts | 343° |
| 2026-04-20 04:45 | 24.35688 | 39.97494 | 18024 ft | 439 kts | 344° |
| 2026-04-20 04:45 | 24.38712 | 39.96887 | 17604 ft | 437 kts | 344° |
| 2026-04-20 04:46 | 24.41667 | 39.96276 | 17193 ft | 435 kts | 344° |
| 2026-04-20 04:46 | 24.44653 | 39.95637 | 16791 ft | 432 kts | 343° |
| 2026-04-20 04:46 | 24.47573 | 39.94994 | 16396 ft | 430 kts | 343° |
| 2026-04-20 04:46 | 24.50524 | 39.94331 | 15899 ft | 430 kts | 343° |
| 2026-04-20 04:47 | 24.53448 | 39.93668 | 15250 ft | 431 kts | 343° |
| 2026-04-20 04:47 | 24.56395 | 39.92997 | 14631 ft | 430 kts | 343° |
| 2026-04-20 04:47 | 24.59302 | 39.92336 | 14004 ft | 430 kts | 344° |
| 2026-04-20 04:47 | 24.62217 | 39.91674 | 13362 ft | 429 kts | 344° |
| 2026-04-20 04:48 | 24.65120 | 39.91016 | 12820 ft | 417 kts | 344° |
| 2026-04-20 04:48 | 24.67938 | 39.90380 | 12127 ft | 407 kts | 343° |
| 2026-04-20 04:48 | 24.70688 | 39.89754 | 11548 ft | 406 kts | 343° |
| 2026-04-20 04:48 | 24.73433 | 39.89127 | 11065 ft | 402 kts | 344° |
| 2026-04-20 04:49 | 24.76149 | 39.88510 | 10811 ft | 389 kts | 344° |
| 2026-04-20 04:49 | 24.78698 | 39.87934 | 10622 ft | 363 kts | 343° |
| 2026-04-20 04:49 | 24.81094 | 39.87392 | 10467 ft | 338 kts | 343° |
| 2026-04-20 04:49 | 24.83300 | 39.86891 | 10323 ft | 317 kts | 343° |
| 2026-04-20 04:50 | 24.85400 | 39.86411 | 10219 ft | 301 kts | 342° |
| 2026-04-20 04:50 | 24.87421 | 39.85947 | 10111 ft | 292 kts | 342° |
| 2026-04-20 04:50 | 24.89374 | 39.85500 | 10011 ft | 284 kts | 342° |
| 2026-04-20 04:50 | 24.91321 | 39.85050 | 9696 ft | 283 kts | 340° |
| 2026-04-20 04:51 | 24.93040 | 39.84206 | 9367 ft | 266 kts | 314° |
| 2026-04-20 04:51 | 24.94144 | 39.82637 | 9030 ft | 255 kts | 291° |
| 2026-04-20 04:51 | 24.94670 | 39.80819 | 8754 ft | 248 kts | 275° |
| 2026-04-20 04:51 | 24.94837 | 39.78949 | 8617 ft | 239 kts | 271° |
| 2026-04-20 04:52 | 24.94938 | 39.77156 | 8560 ft | 225 kts | 269° |
| 2026-04-20 04:52 | 24.94657 | 39.75525 | 8332 ft | 216 kts | 244° |
| 2026-04-20 04:52 | 24.93764 | 39.74229 | 8083 ft | 214 kts | 225° |
| 2026-04-20 04:52 | 24.92540 | 39.73314 | 7816 ft | 215 kts | 207° |
| 2026-04-20 04:53 | 24.91052 | 39.73012 | 7538 ft | 219 kts | 188° |
| 2026-04-20 04:53 | 24.89538 | 39.72922 | 7257 ft | 219 kts | 189° |
| 2026-04-20 04:53 | 24.88030 | 39.72812 | 6980 ft | 218 kts | 189° |
| 2026-04-20 04:53 | 24.86518 | 39.72698 | 6699 ft | 217 kts | 189° |
| 2026-04-20 04:54 | 24.85029 | 39.72586 | 6452 ft | 213 kts | 189° |
| 2026-04-20 04:54 | 24.83580 | 39.72474 | 6278 ft | 206 kts | 189° |
| 2026-04-20 04:54 | 24.82143 | 39.72358 | 6180 ft | 208 kts | 189° |
| 2026-04-20 04:54 | 24.80709 | 39.72243 | 5981 ft | 201 kts | 188° |
| 2026-04-20 04:55 | 24.79352 | 39.72135 | 5831 ft | 193 kts | 188° |
| 2026-04-20 04:55 | 24.78003 | 39.72025 | 5707 ft | 193 kts | 187° |
| 2026-04-20 04:55 | 24.76674 | 39.71918 | 5573 ft | 192 kts | 188° |
| 2026-04-20 04:55 | 24.75354 | 39.71813 | 5440 ft | 191 kts | 189° |
| 2026-04-20 04:56 | 24.74029 | 39.71708 | 5311 ft | 191 kts | 189° |
| 2026-04-20 04:56 | 24.72693 | 39.71594 | 5184 ft | 192 kts | 187° |
| 2026-04-20 04:56 | 24.71369 | 39.71487 | 5043 ft | 191 kts | 187° |
| 2026-04-20 04:56 | 24.70078 | 39.71394 | 4795 ft | 184 kts | 186° |
| 2026-04-20 04:57 | 24.68828 | 39.71301 | 4540 ft | 175 kts | 185° |
| 2026-04-20 04:57 | 24.67672 | 39.71216 | 4304 ft | 161 kts | 184° |
| 2026-04-20 04:57 | 24.66546 | 39.71136 | 4158 ft | 162 kts | 184° |
| 2026-04-20 04:57 | 24.65432 | 39.71055 | 3933 ft | 161 kts | 184° |
| 2026-04-20 04:58 | 24.64315 | 39.70974 | 3723 ft | 158 kts | 183° |
| 2026-04-20 04:58 | 24.63218 | 39.70894 | 3513 ft | 157 kts | 183° |
| 2026-04-20 04:58 | 24.62141 | 39.70815 | 3319 ft | 157 kts | 182° |
| 2026-04-20 04:58 | 24.61050 | 39.70735 | 3118 ft | 157 kts | 182° |
| 2026-04-20 04:59 | 24.59954 | 39.70654 | 2865 ft | 156 kts | 182° |
| 2026-04-20 04:59 | 24.58901 | 39.70572 | 2685 ft | 153 kts | 182° |
| 2026-04-20 04:59 | 24.57833 | 39.70490 | 2448 ft | 153 kts | 177° |
| 2026-04-20 04:59 | 24.56779 | 39.70426 | 2212 ft | 150 kts | 180° |
| 2026-04-20 05:00 | 24.55753 | 39.70354 | 2120 ft | 141 kts | 181° |
| 2026-04-20 05:00 | 24.54919 | 39.70295 | 2117 ft | 93 kts | 184° |
| 2026-04-20 05:00 | 24.54456 | 39.70261 | 2116 ft | 40 kts | 184° |
| 2026-04-20 05:00 | 24.54268 | 39.70249 | 2116 ft | 11 kts | 172° |
| 2026-04-20 05:01 | 24.54252 | 39.70260 | 2116 ft | 3 kts | 130° |
| 2026-04-20 05:01 | 24.54242 | 39.70317 | 2114 ft | 14 kts | 97° |
| 2026-04-20 05:01 | 24.54223 | 39.70454 | 2110 ft | 20 kts | 117° |
| 2026-04-20 05:01 | 24.54114 | 39.70542 | 2110 ft | 20 kts | 150° |
| 2026-04-20 05:02 | 24.53994 | 39.70615 | 2110 ft | 20 kts | 150° |
| 2026-04-20 05:02 | 24.53876 | 39.70687 | 2110 ft | 20 kts | 151° |
| 2026-04-20 05:02 | 24.53762 | 39.70768 | 2110 ft | 20 kts | 124° |
| 2026-04-20 05:02 | 24.53766 | 39.70914 | 2110 ft | 20 kts | 79° |
| 2026-04-20 05:03 | 24.53791 | 39.71063 | 2114 ft | 20 kts | 79° |
| 2026-04-20 05:03 | 24.53817 | 39.71209 | 2116 ft | 20 kts | 79° |
| 2026-04-20 05:03 | 24.53887 | 39.71325 | 2112 ft | 20 kts | 6° |
| 2026-04-20 05:03 | 24.54034 | 39.71292 | 2112 ft | 25 kts | 348° |
| 2026-04-20 05:04 | 24.54214 | 39.71253 | 2112 ft | 27 kts | 349° |
| 2026-04-20 05:04 | 24.54397 | 39.71215 | 2111 ft | 27 kts | 349° |
| 2026-04-20 05:04 | 24.54577 | 39.71174 | 2112 ft | 27 kts | 347° |
| 2026-04-20 05:04 | 24.54735 | 39.71140 | 2112 ft | 15 kts | 349° |
| 2026-04-20 05:05 | 24.54760 | 39.71135 | 2112 ft | 0 kts | 349° |
| 2026-04-20 05:05 | 24.54762 | 39.71134 | 2112 ft | 0 kts | 349° |
| 2026-04-20 05:05 | 24.54763 | 39.71134 | 2112 ft | 0 kts | 349° |
| 2026-04-20 05:06 | 24.54764 | 39.71134 | 2112 ft | 2 kts | 349° |
| 2026-04-20 05:06 | 24.54864 | 39.71113 | 2112 ft | 22 kts | 349° |
| 2026-04-20 05:06 | 24.54983 | 39.71088 | 2111 ft | 14 kts | 349° |
| 2026-04-20 05:07 | 24.55081 | 39.71069 | 2111 ft | 14 kts | 350° |
| 2026-04-20 05:07 | 24.55179 | 39.71051 | 2112 ft | 14 kts | 359° |
| 2026-04-20 05:07 | 24.55234 | 39.71131 | 2110 ft | 15 kts | 77° |
| 2026-04-20 05:07 | 24.55285 | 39.71215 | 2110 ft | 15 kts | 7° |
| 2026-04-20 05:08 | 24.55377 | 39.71200 | 2110 ft | 8 kts | 349° |
| 2026-04-20 05:08 | 24.55435 | 39.71191 | 2110 ft | 8 kts | 5° |
| 2026-04-20 05:08 | 24.55460 | 39.71224 | 2110 ft | 4 kts | 79° |
| 2026-04-20 05:08 | 24.55466 | 39.71259 | 2110 ft | 5 kts | 79° |
| 2026-04-20 05:09 | 24.55470 | 39.71285 | 2110 ft | 3 kts | 79° |
| 2026-04-20 05:09 | 24.55471 | 39.71291 | 2110 ft | 0 kts | 79° |